IBE1702 LEBL-LEPA
Flight info
| Callsign | IBE1702 |
|---|---|
| Flight time | 0h 31m |
| Altitude | 17000 |
| Route | LARPA N859 TOLSO |
| Aircraft | A320/M-SDE3FGHIRWY/LB1 |
Departure
| Time | 2026-05-04 16:47 |
|---|---|
| Airport | Josep Tarradellas Barcelona-El Prat Airport (LEBL) |
Arrival
| Time | 2026-05-04 17:19 |
|---|---|
| Airport | Palma de Mallorca Airport (LEPA) |
| Time | Latitude | Longitude | Altitude | Speed | Heading |
|---|---|---|---|---|---|
| 2026-05-04 15:58 | 41.29052 | 2.08110 | 19 ft | 0 kts | 335° |
| 2026-05-04 16:26 | 41.29013 | 2.08131 | 20 ft | 3 kts | 346° |
| 2026-05-04 16:27 | 41.28975 | 2.08132 | 19 ft | 3 kts | 38° |
| 2026-05-04 16:28 | 41.28968 | 2.08123 | 20 ft | 0 kts | 65° |
| 2026-05-04 16:30 | 41.28993 | 2.08194 | 21 ft | 15 kts | 64° |
| 2026-05-04 16:31 | 41.29034 | 2.08342 | 20 ft | 3 kts | 125° |
| 2026-05-04 16:31 | 41.28899 | 2.08298 | 18 ft | 9 kts | 203° |
| 2026-05-04 16:32 | 41.28758 | 2.08234 | 18 ft | 0 kts | 242° |
| 2026-05-04 16:33 | 41.28756 | 2.08216 | 15 ft | 1 kts | 269° |
| 2026-05-04 16:33 | 41.28751 | 2.08203 | 15 ft | 6 kts | 254° |
| 2026-05-04 16:34 | 41.28703 | 2.08037 | 15 ft | 11 kts | 244° |
| 2026-05-04 16:34 | 41.28647 | 2.07979 | 15 ft | 11 kts | 167° |
| 2026-05-04 16:35 | 41.28689 | 2.08229 | 18 ft | 10 kts | 65° |
| 2026-05-04 16:35 | 41.28846 | 2.08685 | 19 ft | 23 kts | 67° |
| 2026-05-04 16:36 | 41.28914 | 2.08882 | 16 ft | 24 kts | 66° |
| 2026-05-04 16:36 | 41.29054 | 2.09299 | 17 ft | 26 kts | 67° |
| 2026-05-04 16:37 | 41.29218 | 2.09775 | 17 ft | 32 kts | 64° |
| 2026-05-04 16:37 | 41.29274 | 2.09951 | 17 ft | 8 kts | 69° |
| 2026-05-04 16:37 | 41.29262 | 2.10062 | 15 ft | 0 kts | 118° |
| 2026-05-04 16:45 | 41.29241 | 2.10132 | 15 ft | 7 kts | 109° |
| 2026-05-04 16:46 | 41.29247 | 2.10282 | 14 ft | 3 kts | 138° |
| 2026-05-04 16:46 | 41.29104 | 2.09989 | 19 ft | 60 kts | 246° |
| 2026-05-04 16:47 | 41.28415 | 2.08000 | 94 ft | 162 kts | 245° |
| 2026-05-04 16:47 | 41.27089 | 2.05789 | 1507 ft | 158 kts | 195° |
| 2026-05-04 16:48 | 41.23343 | 2.05719 | 2869 ft | 213 kts | 185° |
| 2026-05-04 16:48 | 41.21810 | 2.05623 | 3624 ft | 219 kts | 183° |
| 2026-05-04 16:49 | 41.18817 | 2.05586 | 5415 ft | 217 kts | 182° |
| 2026-05-04 16:49 | 41.15856 | 2.04504 | 5976 ft | 231 kts | 208° |
| 2026-05-04 16:50 | 41.12961 | 2.02541 | 6396 ft | 236 kts | 208° |
| 2026-05-04 16:50 | 41.10055 | 2.00550 | 8196 ft | 236 kts | 209° |
| 2026-05-04 16:51 | 41.07096 | 1.98630 | 9919 ft | 240 kts | 200° |
| 2026-05-04 16:51 | 41.05395 | 1.98098 | 10284 ft | 263 kts | 194° |
| 2026-05-04 16:51 | 41.01477 | 1.97139 | 10815 ft | 308 kts | 193° |
| 2026-05-04 16:52 | 40.97159 | 1.96128 | 12155 ft | 320 kts | 191° |
| 2026-05-04 16:52 | 40.94936 | 1.96147 | 12855 ft | 331 kts | 173° |
| 2026-05-04 16:53 | 40.90934 | 1.99453 | 14195 ft | 358 kts | 133° |
| 2026-05-04 16:53 | 40.86307 | 2.07378 | 16002 ft | 371 kts | 132° |
| 2026-05-04 16:54 | 40.84722 | 2.10086 | 16604 ft | 375 kts | 133° |
| 2026-05-04 16:55 | 40.78366 | 2.20874 | 16906 ft | 367 kts | 134° |
| 2026-05-04 16:55 | 40.74603 | 2.25197 | 16903 ft | 355 kts | 154° |
| 2026-05-04 16:56 | 40.70390 | 2.28591 | 16907 ft | 355 kts | 154° |
| 2026-05-04 16:56 | 40.64070 | 2.33718 | 16906 ft | 355 kts | 154° |
| 2026-05-04 16:57 | 40.61862 | 2.35101 | 16905 ft | 349 kts | 166° |
| 2026-05-04 16:57 | 40.57212 | 2.36770 | 16905 ft | 346 kts | 170° |
| 2026-05-04 16:58 | 40.50215 | 2.39211 | 16911 ft | 347 kts | 170° |
| 2026-05-04 16:58 | 40.47881 | 2.40025 | 16912 ft | 347 kts | 170° |
| 2026-05-04 16:59 | 40.43215 | 2.41648 | 16907 ft | 347 kts | 170° |
| 2026-05-04 17:00 | 40.34271 | 2.44770 | 16218 ft | 320 kts | 171° |
| 2026-05-04 17:00 | 40.27875 | 2.46983 | 15166 ft | 314 kts | 170° |
| 2026-05-04 17:01 | 40.23679 | 2.48496 | 14481 ft | 313 kts | 164° |
| 2026-05-04 17:01 | 40.19942 | 2.51502 | 13784 ft | 322 kts | 141° |
| 2026-05-04 17:02 | 40.17301 | 2.56276 | 13061 ft | 327 kts | 124° |
| 2026-05-04 17:02 | 40.15074 | 2.61357 | 12255 ft | 315 kts | 124° |
| 2026-05-04 17:03 | 40.13980 | 2.63828 | 11948 ft | 312 kts | 125° |
| 2026-05-04 17:03 | 40.12893 | 2.66275 | 11624 ft | 310 kts | 125° |
| 2026-05-04 17:03 | 40.10741 | 2.71112 | 10896 ft | 306 kts | 125° |
| 2026-05-04 17:04 | 40.08621 | 2.75886 | 10238 ft | 302 kts | 125° |
| 2026-05-04 17:04 | 40.06522 | 2.80610 | 9557 ft | 299 kts | 125° |
| 2026-05-04 17:05 | 40.04452 | 2.85268 | 8936 ft | 294 kts | 125° |
| 2026-05-04 17:05 | 40.02386 | 2.89900 | 8924 ft | 295 kts | 125° |
| 2026-05-04 17:06 | 40.00323 | 2.94530 | 8922 ft | 296 kts | 125° |
| 2026-05-04 17:06 | 39.99289 | 2.96850 | 8925 ft | 296 kts | 125° |
| 2026-05-04 17:07 | 39.97222 | 3.01454 | 8924 ft | 297 kts | 125° |
| 2026-05-04 17:07 | 39.96518 | 3.03023 | 8924 ft | 297 kts | 125° |
| 2026-05-04 17:07 | 39.95139 | 3.06099 | 8786 ft | 295 kts | 125° |
| 2026-05-04 17:07 | 39.93999 | 3.08256 | 8189 ft | 285 kts | 138° |
| 2026-05-04 17:08 | 39.92488 | 3.09831 | 7643 ft | 269 kts | 156° |
| 2026-05-04 17:08 | 39.89247 | 3.10984 | 7223 ft | 227 kts | 184° |
| 2026-05-04 17:08 | 39.87680 | 3.10841 | 6684 ft | 231 kts | 189° |
| 2026-05-04 17:09 | 39.86051 | 3.10634 | 6245 ft | 237 kts | 189° |
| 2026-05-04 17:09 | 39.84410 | 3.10427 | 5901 ft | 237 kts | 189° |
| 2026-05-04 17:09 | 39.82778 | 3.10220 | 5528 ft | 235 kts | 189° |
| 2026-05-04 17:10 | 39.79536 | 3.09815 | 4875 ft | 232 kts | 189° |
| 2026-05-04 17:10 | 39.74736 | 3.09225 | 3881 ft | 230 kts | 189° |
| 2026-05-04 17:11 | 39.73152 | 3.09030 | 3581 ft | 227 kts | 189° |
| 2026-05-04 17:11 | 39.71622 | 3.08648 | 3248 ft | 222 kts | 206° |
| 2026-05-04 17:11 | 39.69527 | 3.05920 | 2601 ft | 216 kts | 238° |
| 2026-05-04 17:12 | 39.68741 | 3.04244 | 2470 ft | 220 kts | 238° |
| 2026-05-04 17:12 | 39.67145 | 3.00838 | 2473 ft | 221 kts | 237° |
| 2026-05-04 17:13 | 39.64747 | 2.95727 | 2473 ft | 220 kts | 237° |
| 2026-05-04 17:14 | 39.62560 | 2.91067 | 2472 ft | 176 kts | 237° |
| 2026-05-04 17:14 | 39.61968 | 2.89808 | 2405 ft | 152 kts | 238° |
| 2026-05-04 17:14 | 39.60985 | 2.87720 | 2066 ft | 123 kts | 236° |
| 2026-05-04 17:15 | 39.60544 | 2.86782 | 1914 ft | 120 kts | 236° |
| 2026-05-04 17:15 | 39.59670 | 2.84927 | 1598 ft | 121 kts | 237° |
| 2026-05-04 17:16 | 39.58788 | 2.83055 | 1269 ft | 122 kts | 235° |
| 2026-05-04 17:16 | 39.57476 | 2.80271 | 795 ft | 121 kts | 234° |
| 2026-05-04 17:17 | 39.57040 | 2.79348 | 638 ft | 120 kts | 236° |
| 2026-05-04 17:17 | 39.55748 | 2.76592 | 66 ft | 119 kts | 236° |
| 2026-05-04 17:18 | 39.55297 | 2.75647 | 151 ft | 129 kts | 235° |
| 2026-05-04 17:18 | 39.54449 | 2.73895 | 30 ft | 86 kts | 231° |
| 2026-05-04 17:19 | 39.54278 | 2.73377 | 30 ft | 20 kts | 272° |
| 2026-05-04 17:19 | 39.54350 | 2.73188 | 30 ft | 11 kts | 44° |
| 2026-05-04 17:20 | 39.54451 | 2.73190 | 30 ft | 3 kts | 349° |
| 2026-05-04 17:20 | 39.54481 | 2.73178 | 30 ft | 1 kts | 343° |
| 2026-05-04 17:20 | 39.54482 | 2.73178 | 30 ft | 0 kts | 343° |